sensor_id;sensor_type;location;lat;lon;timestamp;temperature;humidity
66119;DHT22;52912;48.564;9.302;2023-04-03T00:01:16;3.68;83.16
66119;DHT22;52912;48.564;9.302;2023-04-03T00:03:42;3.65;83.20
66119;DHT22;52912;48.564;9.302;2023-04-03T00:06:09;3.62;83.49
66119;DHT22;52912;48.564;9.302;2023-04-03T00:08:35;3.70;83.25
66119;DHT22;52912;48.564;9.302;2023-04-03T00:11:00;3.68;83.07
66119;DHT22;52912;48.564;9.302;2023-04-03T00:13:26;3.63;83.29
66119;DHT22;52912;48.564;9.302;2023-04-03T00:15:51;3.69;83.28
66119;DHT22;52912;48.564;9.302;2023-04-03T00:18:17;3.78;83.01
66119;DHT22;52912;48.564;9.302;2023-04-03T00:20:43;3.62;82.93
66119;DHT22;52912;48.564;9.302;2023-04-03T00:23:10;3.62;83.22
66119;DHT22;52912;48.564;9.302;2023-04-03T00:25:36;3.59;83.25
66119;DHT22;52912;48.564;9.302;2023-04-03T00:28:02;3.58;83.48
66119;DHT22;52912;48.564;9.302;2023-04-03T00:30:28;3.51;83.89
66119;DHT22;52912;48.564;9.302;2023-04-03T00:32:53;3.62;83.26
66119;DHT22;52912;48.564;9.302;2023-04-03T00:35:20;3.54;83.72
66119;DHT22;52912;48.564;9.302;2023-04-03T00:37:46;3.59;83.55
66119;DHT22;52912;48.564;9.302;2023-04-03T00:40:14;3.54;83.34
66119;DHT22;52912;48.564;9.302;2023-04-03T00:42:41;3.50;83.39
66119;DHT22;52912;48.564;9.302;2023-04-03T00:45:25;3.45;83.50
66119;DHT22;52912;48.564;9.302;2023-04-03T00:47:51;3.45;83.69
66119;DHT22;52912;48.564;9.302;2023-04-03T00:50:16;3.35;83.61
66119;DHT22;52912;48.564;9.302;2023-04-03T00:52:42;3.52;83.13
66119;DHT22;52912;48.564;9.302;2023-04-03T00:55:09;3.38;83.33
66119;DHT22;52912;48.564;9.302;2023-04-03T00:57:36;3.36;83.35
66119;DHT22;52912;48.564;9.302;2023-04-03T01:00:07;3.38;83.48
66119;DHT22;52912;48.564;9.302;2023-04-03T01:02:33;3.28;83.59
66119;DHT22;52912;48.564;9.302;2023-04-03T01:04:58;3.24;84.05
66119;DHT22;52912;48.564;9.302;2023-04-03T01:07:27;3.28;83.78
66119;DHT22;52912;48.564;9.302;2023-04-03T01:09:57;3.25;83.84
66119;DHT22;52912;48.564;9.302;2023-04-03T01:12:25;3.30;84.01
66119;DHT22;52912;48.564;9.302;2023-04-03T01:14:54;3.31;83.86
66119;DHT22;52912;48.564;9.302;2023-04-03T01:17:28;3.25;83.74
66119;DHT22;52912;48.564;9.302;2023-04-03T01:20:11;3.14;83.87
66119;DHT22;52912;48.564;9.302;2023-04-03T01:22:48;3.24;83.62
66119;DHT22;52912;48.564;9.302;2023-04-03T01:25:19;3.20;83.88
66119;DHT22;52912;48.564;9.302;2023-04-03T01:27:44;3.16;84.03
66119;DHT22;52912;48.564;9.302;2023-04-03T01:30:13;3.10;84.27
66119;DHT22;52912;48.564;9.302;2023-04-03T01:32:40;3.03;84.22
66119;DHT22;52912;48.564;9.302;2023-04-03T01:35:06;3.08;84.31
66119;DHT22;52912;48.564;9.302;2023-04-03T01:37:32;3.10;84.15
66119;DHT22;52912;48.564;9.302;2023-04-03T01:39:57;3.28;83.86
66119;DHT22;52912;48.564;9.302;2023-04-03T01:42:22;3.16;84.05
66119;DHT22;52912;48.564;9.302;2023-04-03T01:44:47;3.08;84.32
66119;DHT22;52912;48.564;9.302;2023-04-03T01:47:14;3.11;84.08
66119;DHT22;52912;48.564;9.302;2023-04-03T01:49:40;3.11;84.26
66119;DHT22;52912;48.564;9.302;2023-04-03T01:52:06;3.14;84.35
66119;DHT22;52912;48.564;9.302;2023-04-03T01:54:31;3.08;84.20
66119;DHT22;52912;48.564;9.302;2023-04-03T01:56:56;3.03;84.36
66119;DHT22;52912;48.564;9.302;2023-04-03T01:59:22;2.95;84.56
66119;DHT22;52912;48.564;9.302;2023-04-03T02:01:47;2.99;84.57
66119;DHT22;52912;48.564;9.302;2023-04-03T02:04:12;2.99;84.42
66119;DHT22;52912;48.564;9.302;2023-04-03T02:06:39;2.99;84.48
66119;DHT22;52912;48.564;9.302;2023-04-03T02:09:04;2.95;84.46
66119;DHT22;52912;48.564;9.302;2023-04-03T02:11:30;2.96;84.45
66119;DHT22;52912;48.564;9.302;2023-04-03T02:13:55;3.01;84.43
66119;DHT22;52912;48.564;9.302;2023-04-03T02:16:20;2.99;84.41
66119;DHT22;52912;48.564;9.302;2023-04-03T02:18:46;3.03;84.40
66119;DHT22;52912;48.564;9.302;2023-04-03T02:21:11;2.96;84.26
66119;DHT22;52912;48.564;9.302;2023-04-03T02:23:37;2.96;84.30
66119;DHT22;52912;48.564;9.302;2023-04-03T02:26:06;2.97;84.09
66119;DHT22;52912;48.564;9.302;2023-04-03T02:28:32;2.93;84.21
66119;DHT22;52912;48.564;9.302;2023-04-03T02:30:57;2.92;84.12
66119;DHT22;52912;48.564;9.302;2023-04-03T02:33:22;2.95;84.21
66119;DHT22;52912;48.564;9.302;2023-04-03T02:35:51;2.95;84.01
66119;DHT22;52912;48.564;9.302;2023-04-03T02:38:17;2.99;84.07
66119;DHT22;52912;48.564;9.302;2023-04-03T02:40:43;3.06;83.77
66119;DHT22;52912;48.564;9.302;2023-04-03T02:43:08;3.10;83.60
66119;DHT22;52912;48.564;9.302;2023-04-03T02:45:34;3.01;83.52
66119;DHT22;52912;48.564;9.302;2023-04-03T02:47:59;3.07;83.28
66119;DHT22;52912;48.564;9.302;2023-04-03T02:50:24;3.01;83.53
66119;DHT22;52912;48.564;9.302;2023-04-03T02:52:49;3.01;83.56
66119;DHT22;52912;48.564;9.302;2023-04-03T02:55:15;2.97;83.43
66119;DHT22;52912;48.564;9.302;2023-04-03T02:57:41;2.99;83.16
66119;DHT22;52912;48.564;9.302;2023-04-03T03:00:08;2.93;83.58
66119;DHT22;52912;48.564;9.302;2023-04-03T03:02:33;2.97;83.43
66119;DHT22;52912;48.564;9.302;2023-04-03T03:04:59;3.04;83.35
66119;DHT22;52912;48.564;9.302;2023-04-03T03:07:24;3.01;82.66
66119;DHT22;52912;48.564;9.302;2023-04-03T03:09:49;2.99;82.83
66119;DHT22;52912;48.564;9.302;2023-04-03T03:12:15;2.95;83.31
66119;DHT22;52912;48.564;9.302;2023-04-03T03:14:41;2.96;83.21
66119;DHT22;52912;48.564;9.302;2023-04-03T03:17:06;2.99;83.24
66119;DHT22;52912;48.564;9.302;2023-04-03T03:19:32;2.93;83.10
66119;DHT22;52912;48.564;9.302;2023-04-03T03:21:57;3.04;83.00
66119;DHT22;52912;48.564;9.302;2023-04-03T03:24:22;2.95;83.19
66119;DHT22;52912;48.564;9.302;2023-04-03T03:26:47;2.92;83.32
66119;DHT22;52912;48.564;9.302;2023-04-03T03:29:13;2.86;83.14
66119;DHT22;52912;48.564;9.302;2023-04-03T03:31:39;2.89;83.46
66119;DHT22;52912;48.564;9.302;2023-04-03T03:34:05;2.89;83.37
66119;DHT22;52912;48.564;9.302;2023-04-03T03:36:30;2.85;83.45
66119;DHT22;52912;48.564;9.302;2023-04-03T03:38:55;2.89;83.51
66119;DHT22;52912;48.564;9.302;2023-04-03T03:41:20;2.92;83.73
66119;DHT22;52912;48.564;9.302;2023-04-03T03:43:46;2.92;83.38
66119;DHT22;52912;48.564;9.302;2023-04-03T03:46:11;2.96;83.08
66119;DHT22;52912;48.564;9.302;2023-04-03T03:48:37;3.01;82.91
66119;DHT22;52912;48.564;9.302;2023-04-03T03:51:03;3.00;82.64
66119;DHT22;52912;48.564;9.302;2023-04-03T03:53:28;2.95;82.31
66119;DHT22;52912;48.564;9.302;2023-04-03T03:55:53;3.11;82.20
66119;DHT22;52912;48.564;9.302;2023-04-03T03:58:19;3.17;81.65
66119;DHT22;52912;48.564;9.302;2023-04-03T04:00:44;3.07;81.76
66119;DHT22;52912;48.564;9.302;2023-04-03T04:03:09;3.03;82.02
66119;DHT22;52912;48.564;9.302;2023-04-03T04:05:36;2.93;82.15
66119;DHT22;52912;48.564;9.302;2023-04-03T04:08:01;2.96;82.04
66119;DHT22;52912;48.564;9.302;2023-04-03T04:10:26;2.86;82.21
66119;DHT22;52912;48.564;9.302;2023-04-03T04:12:51;2.90;82.35
66119;DHT22;52912;48.564;9.302;2023-04-03T04:15:17;2.93;82.39
66119;DHT22;52912;48.564;9.302;2023-04-03T04:17:42;2.96;82.48
66119;DHT22;52912;48.564;9.302;2023-04-03T04:20:07;2.99;82.40
66119;DHT22;52912;48.564;9.302;2023-04-03T04:22:34;3.08;82.11
66119;DHT22;52912;48.564;9.302;2023-04-03T04:24:59;2.99;82.14
66119;DHT22;52912;48.564;9.302;2023-04-03T04:27:25;2.92;82.26
66119;DHT22;52912;48.564;9.302;2023-04-03T04:29:50;2.93;82.11
66119;DHT22;52912;48.564;9.302;2023-04-03T04:32:15;3.06;81.66
66119;DHT22;52912;48.564;9.302;2023-04-03T04:34:40;3.06;81.85
66119;DHT22;52912;48.564;9.302;2023-04-03T04:37:06;3.10;81.78
66119;DHT22;52912;48.564;9.302;2023-04-03T04:39:32;3.00;81.70
66119;DHT22;52912;48.564;9.302;2023-04-03T04:41:57;2.97;82.06
66119;DHT22;52912;48.564;9.302;2023-04-03T04:44:23;2.93;81.96
66119;DHT22;52912;48.564;9.302;2023-04-03T04:46:48;3.06;81.77
66119;DHT22;52912;48.564;9.302;2023-04-03T04:49:13;2.96;81.46
66119;DHT22;52912;48.564;9.302;2023-04-03T04:51:39;3.03;81.52
66119;DHT22;52912;48.564;9.302;2023-04-03T04:54:04;3.01;81.48
66119;DHT22;52912;48.564;9.302;2023-04-03T04:56:30;2.99;81.16
66119;DHT22;52912;48.564;9.302;2023-04-03T04:58:56;3.06;80.78
66119;DHT22;52912;48.564;9.302;2023-04-03T05:01:21;3.11;80.48
66119;DHT22;52912;48.564;9.302;2023-04-03T05:03:46;3.06;80.07
66119;DHT22;52912;48.564;9.302;2023-04-03T05:06:11;3.18;78.72
66119;DHT22;52912;48.564;9.302;2023-04-03T05:08:37;3.16;78.74
66119;DHT22;52912;48.564;9.302;2023-04-03T05:11:02;3.01;78.72
66119;DHT22;52912;48.564;9.302;2023-04-03T05:13:29;3.06;78.80
66119;DHT22;52912;48.564;9.302;2023-04-03T05:15:54;3.00;78.65
66119;DHT22;52912;48.564;9.302;2023-04-03T05:18:19;3.06;78.64
66119;DHT22;52912;48.564;9.302;2023-04-03T05:20:44;3.08;79.02
66119;DHT22;52912;48.564;9.302;2023-04-03T05:23:10;3.11;79.17
66119;DHT22;52912;48.564;9.302;2023-04-03T05:25:36;3.10;79.34
66119;DHT22;52912;48.564;9.302;2023-04-03T05:28:02;3.10;79.31
66119;DHT22;52912;48.564;9.302;2023-04-03T05:30:28;3.27;78.67
66119;DHT22;52912;48.564;9.302;2023-04-03T05:32:54;3.20;78.57
66119;DHT22;52912;48.564;9.302;2023-04-03T05:35:19;3.10;78.49
66119;DHT22;52912;48.564;9.302;2023-04-03T05:37:44;3.10;78.87
66119;DHT22;52912;48.564;9.302;2023-04-03T05:40:09;3.13;78.83
66119;DHT22;52912;48.564;9.302;2023-04-03T05:42:35;3.07;78.68
66119;DHT22;52912;48.564;9.302;2023-04-03T05:45:00;3.14;78.57
66119;DHT22;52912;48.564;9.302;2023-04-03T05:47:27;3.25;78.55
66119;DHT22;52912;48.564;9.302;2023-04-03T05:49:52;3.27;78.31
66119;DHT22;52912;48.564;9.302;2023-04-03T05:52:18;3.36;78.00
66119;DHT22;52912;48.564;9.302;2023-04-03T05:54:44;3.38;78.27
66119;DHT22;52912;48.564;9.302;2023-04-03T05:57:10;3.44;77.14
66119;DHT22;52912;48.564;9.302;2023-04-03T05:59:35;3.48;77.10
66119;DHT22;52912;48.564;9.302;2023-04-03T06:02:00;3.48;76.93
66119;DHT22;52912;48.564;9.302;2023-04-03T06:04:27;3.46;76.76
66119;DHT22;52912;48.564;9.302;2023-04-03T06:06:53;3.55;76.88
66119;DHT22;52912;48.564;9.302;2023-04-03T06:09:19;3.52;76.54
66119;DHT22;52912;48.564;9.302;2023-04-03T06:11:44;3.36;76.60
66119;DHT22;52912;48.564;9.302;2023-04-03T06:14:09;3.52;76.92
66119;DHT22;52912;48.564;9.302;2023-04-03T06:16:35;3.44;76.53
66119;DHT22;52912;48.564;9.302;2023-04-03T06:19:00;3.54;76.92
66119;DHT22;52912;48.564;9.302;2023-04-03T06:21:27;3.42;76.71
66119;DHT22;52912;48.564;9.302;2023-04-03T06:23:52;3.48;76.61
66119;DHT22;52912;48.564;9.302;2023-04-03T06:26:17;3.48;76.88
66119;DHT22;52912;48.564;9.302;2023-04-03T06:28:43;3.34;76.50
66119;DHT22;52912;48.564;9.302;2023-04-03T06:31:08;3.42;76.39
66119;DHT22;52912;48.564;9.302;2023-04-03T06:33:33;3.34;76.66
66119;DHT22;52912;48.564;9.302;2023-04-03T06:35:58;3.31;76.84
66119;DHT22;52912;48.564;9.302;2023-04-03T06:38:25;3.31;76.99
66119;DHT22;52912;48.564;9.302;2023-04-03T06:40:50;3.38;77.04
66119;DHT22;52912;48.564;9.302;2023-04-03T06:43:16;3.48;76.82
66119;DHT22;52912;48.564;9.302;2023-04-03T06:45:41;3.58;76.65
66119;DHT22;52912;48.564;9.302;2023-04-03T06:48:06;3.50;76.88
66119;DHT22;52912;48.564;9.302;2023-04-03T06:50:31;3.62;76.53
66119;DHT22;52912;48.564;9.302;2023-04-03T06:52:57;3.70;76.67
66119;DHT22;52912;48.564;9.302;2023-04-03T06:55:23;3.63;75.66
66119;DHT22;52912;48.564;9.302;2023-04-03T06:57:49;3.66;76.02
66119;DHT22;52912;48.564;9.302;2023-04-03T07:00:14;3.66;76.18
66119;DHT22;52912;48.564;9.302;2023-04-03T07:02:40;3.72;75.95
66119;DHT22;52912;48.564;9.302;2023-04-03T07:05:05;3.82;75.94
66119;DHT22;52912;48.564;9.302;2023-04-03T07:07:31;3.98;76.11
66119;DHT22;52912;48.564;9.302;2023-04-03T07:09:56;4.01;75.74
66119;DHT22;52912;48.564;9.302;2023-04-03T07:12:23;4.06;75.11
66119;DHT22;52912;48.564;9.302;2023-04-03T07:14:48;4.01;75.78
66119;DHT22;52912;48.564;9.302;2023-04-03T07:17:13;3.96;75.52
66119;DHT22;52912;48.564;9.302;2023-04-03T07:19:38;3.90;75.67
66119;DHT22;52912;48.564;9.302;2023-04-03T07:22:04;4.14;75.78
66119;DHT22;52912;48.564;9.302;2023-04-03T07:24:29;4.30;75.39
66119;DHT22;52912;48.564;9.302;2023-04-03T07:26:54;4.21;74.98
66119;DHT22;52912;48.564;9.302;2023-04-03T07:29:21;4.46;75.07
66119;DHT22;52912;48.564;9.302;2023-04-03T07:31:46;4.30;75.17
66119;DHT22;52912;48.564;9.302;2023-04-03T07:34:11;4.49;74.93
66119;DHT22;52912;48.564;9.302;2023-04-03T07:36:37;4.62;74.45
66119;DHT22;52912;48.564;9.302;2023-04-03T07:39:02;4.65;73.98
66119;DHT22;52912;48.564;9.302;2023-04-03T07:41:27;4.73;74.25
66119;DHT22;52912;48.564;9.302;2023-04-03T07:43:52;4.75;73.71
66119;DHT22;52912;48.564;9.302;2023-04-03T07:46:19;4.65;73.81
66119;DHT22;52912;48.564;9.302;2023-04-03T07:48:44;4.77;73.73
66119;DHT22;52912;48.564;9.302;2023-04-03T07:51:10;4.90;73.06
66119;DHT22;52912;48.564;9.302;2023-04-03T07:53:35;5.07;72.25
66119;DHT22;52912;48.564;9.302;2023-04-03T07:56:00;4.90;72.25
66119;DHT22;52912;48.564;9.302;2023-04-03T07:58:25;4.96;72.65
66119;DHT22;52912;48.564;9.302;2023-04-03T08:00:51;5.00;73.26
66119;DHT22;52912;48.564;9.302;2023-04-03T08:03:18;5.04;73.36
66119;DHT22;52912;48.564;9.302;2023-04-03T08:05:44;5.10;72.57
66119;DHT22;52912;48.564;9.302;2023-04-03T08:08:10;5.15;73.18
66119;DHT22;52912;48.564;9.302;2023-04-03T08:10:36;5.14;73.19
66119;DHT22;52912;48.564;9.302;2023-04-03T08:13:01;5.24;72.39
66119;DHT22;52912;48.564;9.302;2023-04-03T08:15:27;5.27;72.76
66119;DHT22;52912;48.564;9.302;2023-04-03T08:17:52;5.22;72.62
66119;DHT22;52912;48.564;9.302;2023-04-03T08:20:19;5.30;72.73
66119;DHT22;52912;48.564;9.302;2023-04-03T08:22:44;5.21;73.11
66119;DHT22;52912;48.564;9.302;2023-04-03T08:25:09;5.41;72.54
66119;DHT22;52912;48.564;9.302;2023-04-03T08:27:35;5.31;72.29
66119;DHT22;52912;48.564;9.302;2023-04-03T08:30:00;5.80;72.43
66119;DHT22;52912;48.564;9.302;2023-04-03T08:32:25;6.07;71.67
66119;DHT22;52912;48.564;9.302;2023-04-03T08:34:51;5.90;70.86
66119;DHT22;52912;48.564;9.302;2023-04-03T08:37:17;5.65;71.07
66119;DHT22;52912;48.564;9.302;2023-04-03T08:39:42;5.89;71.01
66119;DHT22;52912;48.564;9.302;2023-04-03T08:42:11;5.78;70.84
66119;DHT22;52912;48.564;9.302;2023-04-03T08:44:41;5.81;71.76
66119;DHT22;52912;48.564;9.302;2023-04-03T08:47:11;5.86;71.29
66119;DHT22;52912;48.564;9.302;2023-04-03T08:49:41;5.86;70.52
66119;DHT22;52912;48.564;9.302;2023-04-03T08:52:09;5.76;70.84
66119;DHT22;52912;48.564;9.302;2023-04-03T08:54:37;6.01;70.75
66119;DHT22;52912;48.564;9.302;2023-04-03T08:57:05;6.05;69.70
66119;DHT22;52912;48.564;9.302;2023-04-03T08:59:32;5.74;70.20
66119;DHT22;52912;48.564;9.302;2023-04-03T09:01:59;5.62;69.73
66119;DHT22;52912;48.564;9.302;2023-04-03T09:04:26;5.71;69.16
66119;DHT22;52912;48.564;9.302;2023-04-03T09:06:52;5.66;70.32
66119;DHT22;52912;48.564;9.302;2023-04-03T09:09:22;5.69;69.74
66119;DHT22;52912;48.564;9.302;2023-04-03T09:11:51;5.87;69.47
66119;DHT22;52912;48.564;9.302;2023-04-03T09:14:20;5.97;69.98
66119;DHT22;52912;48.564;9.302;2023-04-03T09:16:48;5.95;68.52
66119;DHT22;52912;48.564;9.302;2023-04-03T09:19:15;5.86;68.48
66119;DHT22;52912;48.564;9.302;2023-04-03T09:21:44;5.81;69.27
66119;DHT22;52912;48.564;9.302;2023-04-03T09:24:10;5.81;69.92
66119;DHT22;52912;48.564;9.302;2023-04-03T09:26:39;5.78;69.80
66119;DHT22;52912;48.564;9.302;2023-04-03T09:29:08;5.55;70.11
66119;DHT22;52912;48.564;9.302;2023-04-03T09:31:36;5.48;70.63
66119;DHT22;52912;48.564;9.302;2023-04-03T09:34:02;5.66;70.53
66119;DHT22;52912;48.564;9.302;2023-04-03T09:36:38;5.73;70.76
66119;DHT22;52912;48.564;9.302;2023-04-03T09:39:04;5.69;71.00
66119;DHT22;52912;48.564;9.302;2023-04-03T09:41:29;5.86;70.70
66119;DHT22;52912;48.564;9.302;2023-04-03T09:43:54;6.05;70.74
66119;DHT22;52912;48.564;9.302;2023-04-03T09:46:25;6.10;70.06
66119;DHT22;52912;48.564;9.302;2023-04-03T09:48:56;6.00;69.21
66119;DHT22;52912;48.564;9.302;2023-04-03T09:51:23;6.10;69.79
66119;DHT22;52912;48.564;9.302;2023-04-03T09:53:49;5.94;70.04
66119;DHT22;52912;48.564;9.302;2023-04-03T09:56:18;6.07;69.90
66119;DHT22;52912;48.564;9.302;2023-04-03T09:58:45;5.84;69.02
66119;DHT22;52912;48.564;9.302;2023-04-03T10:01:20;5.91;68.79
66119;DHT22;52912;48.564;9.302;2023-04-03T10:03:47;5.86;69.29
66119;DHT22;52912;48.564;9.302;2023-04-03T10:06:26;6.21;69.14
66119;DHT22;52912;48.564;9.302;2023-04-03T10:08:58;6.31;69.11
66119;DHT22;52912;48.564;9.302;2023-04-03T10:11:23;6.05;68.47
66119;DHT22;52912;48.564;9.302;2023-04-03T10:13:49;6.12;68.94
66119;DHT22;52912;48.564;9.302;2023-04-03T10:16:15;6.03;68.92
66119;DHT22;52912;48.564;9.302;2023-04-03T10:18:42;6.04;69.27
66119;DHT22;52912;48.564;9.302;2023-04-03T10:21:13;5.94;69.13
66119;DHT22;52912;48.564;9.302;2023-04-03T10:23:40;6.08;68.75
66119;DHT22;52912;48.564;9.302;2023-04-03T10:26:09;5.98;67.70
66119;DHT22;52912;48.564;9.302;2023-04-03T10:28:39;5.97;66.92
66119;DHT22;52912;48.564;9.302;2023-04-03T10:31:10;5.89;67.45
66119;DHT22;52912;48.564;9.302;2023-04-03T10:33:45;6.24;67.50
66119;DHT22;52912;48.564;9.302;2023-04-03T10:36:17;6.14;66.77
66119;DHT22;52912;48.564;9.302;2023-04-03T10:38:48;6.03;66.81
66119;DHT22;52912;48.564;9.302;2023-04-03T10:41:17;6.20;67.09
66119;DHT22;52912;48.564;9.302;2023-04-03T10:43:48;6.17;66.85
66119;DHT22;52912;48.564;9.302;2023-04-03T10:46:15;6.22;66.00
66119;DHT22;52912;48.564;9.302;2023-04-03T10:48:45;6.42;65.71
66119;DHT22;52912;48.564;9.302;2023-04-03T10:51:21;6.66;65.22
66119;DHT22;52912;48.564;9.302;2023-04-03T10:53:50;6.65;64.73
66119;DHT22;52912;48.564;9.302;2023-04-03T10:56:18;6.53;65.38
66119;DHT22;52912;48.564;9.302;2023-04-03T10:58:44;6.50;65.44
66119;DHT22;52912;48.564;9.302;2023-04-03T11:01:11;6.29;65.88
66119;DHT22;52912;48.564;9.302;2023-04-03T11:03:38;6.24;66.48
66119;DHT22;52912;48.564;9.302;2023-04-03T11:06:05;6.17;65.73
66119;DHT22;52912;48.564;9.302;2023-04-03T11:08:34;6.10;65.98
66119;DHT22;52912;48.564;9.302;2023-04-03T11:11:03;6.08;65.72
66119;DHT22;52912;48.564;9.302;2023-04-03T11:13:32;6.03;65.83
66119;DHT22;52912;48.564;9.302;2023-04-03T11:15:58;6.07;66.02
66119;DHT22;52912;48.564;9.302;2023-04-03T11:18:25;6.42;65.32
66119;DHT22;52912;48.564;9.302;2023-04-03T11:20:53;6.59;63.55
66119;DHT22;52912;48.564;9.302;2023-04-03T11:23:21;6.42;63.47
66119;DHT22;52912;48.564;9.302;2023-04-03T11:25:49;6.29;64.77
66119;DHT22;52912;48.564;9.302;2023-04-03T11:28:15;6.25;64.37
66119;DHT22;52912;48.564;9.302;2023-04-03T11:30:42;6.50;64.81
66119;DHT22;52912;48.564;9.302;2023-04-03T11:33:18;6.59;64.56
66119;DHT22;52912;48.564;9.302;2023-04-03T11:35:47;6.54;62.66
66119;DHT22;52912;48.564;9.302;2023-04-03T11:38:14;6.36;62.87
66119;DHT22;52912;48.564;9.302;2023-04-03T11:40:42;6.36;63.35
66119;DHT22;52912;48.564;9.302;2023-04-03T11:43:18;6.17;63.75
66119;DHT22;52912;48.564;9.302;2023-04-03T11:48:41;6.43;64.17
66119;DHT22;52912;48.564;9.302;2023-04-03T11:53:47;6.52;63.76
66119;DHT22;52912;48.564;9.302;2023-04-03T11:56:29;6.42;63.94
66119;DHT22;52912;48.564;9.302;2023-04-03T12:01:44;6.73;63.14
66119;DHT22;52912;48.564;9.302;2023-04-03T12:04:10;6.79;62.68
66119;DHT22;52912;48.564;9.302;2023-04-03T12:09:22;6.40;61.75
66119;DHT22;52912;48.564;9.302;2023-04-03T12:11:48;6.35;62.83
66119;DHT22;52912;48.564;9.302;2023-04-03T12:14:14;6.50;63.01
66119;DHT22;52912;48.564;9.302;2023-04-03T12:16:42;6.53;62.87
66119;DHT22;52912;48.564;9.302;2023-04-03T12:24:33;6.15;63.44
66119;DHT22;52912;48.564;9.302;2023-04-03T12:27:03;6.38;63.57
66119;DHT22;52912;48.564;9.302;2023-04-03T12:29:33;6.32;63.11
66119;DHT22;52912;48.564;9.302;2023-04-03T12:32:05;6.26;62.64
66119;DHT22;52912;48.564;9.302;2023-04-03T12:34:41;6.45;62.93
66119;DHT22;52912;48.564;9.302;2023-04-03T12:37:08;6.46;62.47
66119;DHT22;52912;48.564;9.302;2023-04-03T12:39:43;6.54;61.95
66119;DHT22;52912;48.564;9.302;2023-04-03T12:42:15;6.54;61.99
66119;DHT22;52912;48.564;9.302;2023-04-03T12:44:44;6.42;61.63
66119;DHT22;52912;48.564;9.302;2023-04-03T12:49:58;6.62;62.42
66119;DHT22;52912;48.564;9.302;2023-04-03T12:52:29;6.54;61.83
66119;DHT22;52912;48.564;9.302;2023-04-03T12:54:56;6.39;61.93
66119;DHT22;52912;48.564;9.302;2023-04-03T12:57:23;6.57;62.09
66119;DHT22;52912;48.564;9.302;2023-04-03T12:59:49;6.67;60.92
66119;DHT22;52912;48.564;9.302;2023-04-03T13:02:19;6.54;61.22
66119;DHT22;52912;48.564;9.302;2023-04-03T13:04:45;6.73;61.30
66119;DHT22;52912;48.564;9.302;2023-04-03T13:07:18;6.40;61.63
66119;DHT22;52912;48.564;9.302;2023-04-03T13:09:47;6.29;61.50
66119;DHT22;52912;48.564;9.302;2023-04-03T13:12:21;6.53;61.73
66119;DHT22;52912;48.564;9.302;2023-04-03T13:14:51;6.60;61.80
66119;DHT22;52912;48.564;9.302;2023-04-03T13:17:16;6.74;61.77
66119;DHT22;52912;48.564;9.302;2023-04-03T13:19:42;6.62;61.34
66119;DHT22;52912;48.564;9.302;2023-04-03T13:22:08;6.63;61.15
66119;DHT22;52912;48.564;9.302;2023-04-03T13:24:35;6.60;62.11
66119;DHT22;52912;48.564;9.302;2023-04-03T13:27:01;6.52;61.12
66119;DHT22;52912;48.564;9.302;2023-04-03T13:29:29;6.46;61.28
66119;DHT22;52912;48.564;9.302;2023-04-03T13:31:55;6.59;61.94
66119;DHT22;52912;48.564;9.302;2023-04-03T13:34:21;6.57;62.00
66119;DHT22;52912;48.564;9.302;2023-04-03T13:36:54;6.52;62.49
66119;DHT22;52912;48.564;9.302;2023-04-03T13:39:21;6.33;62.13
66119;DHT22;52912;48.564;9.302;2023-04-03T13:41:48;6.56;61.29
66119;DHT22;52912;48.564;9.302;2023-04-03T13:44:31;6.42;60.60
66119;DHT22;52912;48.564;9.302;2023-04-03T13:46:57;6.62;61.13
66119;DHT22;52912;48.564;9.302;2023-04-03T13:49:27;6.60;61.09
66119;DHT22;52912;48.564;9.302;2023-04-03T13:51:53;6.66;61.43
66119;DHT22;52912;48.564;9.302;2023-04-03T13:54:20;7.02;60.22
66119;DHT22;52912;48.564;9.302;2023-04-03T13:56:45;6.90;60.57
66119;DHT22;52912;48.564;9.302;2023-04-03T13:59:22;6.81;60.76
66119;DHT22;52912;48.564;9.302;2023-04-03T14:01:49;6.80;60.84
66119;DHT22;52912;48.564;9.302;2023-04-03T14:04:16;6.81;61.40
66119;DHT22;52912;48.564;9.302;2023-04-03T14:06:42;7.04;60.63
66119;DHT22;52912;48.564;9.302;2023-04-03T14:09:07;6.97;60.49
66119;DHT22;52912;48.564;9.302;2023-04-03T14:11:33;7.07;60.93
66119;DHT22;52912;48.564;9.302;2023-04-03T14:14:00;6.98;59.72
66119;DHT22;52912;48.564;9.302;2023-04-03T14:16:27;6.98;59.79
66119;DHT22;52912;48.564;9.302;2023-04-03T14:18:56;6.90;59.96
66119;DHT22;52912;48.564;9.302;2023-04-03T14:21:21;6.88;59.69
66119;DHT22;52912;48.564;9.302;2023-04-03T14:23:47;7.07;59.93
66119;DHT22;52912;48.564;9.302;2023-04-03T14:26:13;6.91;60.20
66119;DHT22;52912;48.564;9.302;2023-04-03T14:28:39;6.98;60.69
66119;DHT22;52912;48.564;9.302;2023-04-03T14:31:04;7.05;60.00
66119;DHT22;52912;48.564;9.302;2023-04-03T14:33:30;6.66;59.32
66119;DHT22;52912;48.564;9.302;2023-04-03T14:35:56;6.79;59.48
66119;DHT22;52912;48.564;9.302;2023-04-03T14:38:23;6.72;58.80
66119;DHT22;52912;48.564;9.302;2023-04-03T14:40:49;6.62;58.27
66119;DHT22;52912;48.564;9.302;2023-04-03T14:43:14;6.65;58.64
66119;DHT22;52912;48.564;9.302;2023-04-03T14:45:40;6.73;58.69
66119;DHT22;52912;48.564;9.302;2023-04-03T14:48:06;6.76;58.26
66119;DHT22;52912;48.564;9.302;2023-04-03T14:50:34;6.74;58.91
66119;DHT22;52912;48.564;9.302;2023-04-03T14:53:01;6.80;58.43
66119;DHT22;52912;48.564;9.302;2023-04-03T14:55:26;6.88;58.13
66119;DHT22;52912;48.564;9.302;2023-04-03T14:57:52;6.93;57.95
66119;DHT22;52912;48.564;9.302;2023-04-03T15:00:18;7.07;58.51
66119;DHT22;52912;48.564;9.302;2023-04-03T15:02:44;7.09;58.95
66119;DHT22;52912;48.564;9.302;2023-04-03T15:05:10;6.88;59.02
66119;DHT22;52912;48.564;9.302;2023-04-03T15:07:36;6.80;59.38
66119;DHT22;52912;48.564;9.302;2023-04-03T15:10:06;6.73;59.69
66119;DHT22;52912;48.564;9.302;2023-04-03T15:12:38;6.76;59.71
66119;DHT22;52912;48.564;9.302;2023-04-03T15:15:04;6.80;59.63
66119;DHT22;52912;48.564;9.302;2023-04-03T15:17:29;6.70;60.21
66119;DHT22;52912;48.564;9.302;2023-04-03T15:19:54;6.79;59.31
66119;DHT22;52912;48.564;9.302;2023-04-03T15:22:20;6.74;58.92
66119;DHT22;52912;48.564;9.302;2023-04-03T15:24:45;6.60;58.82
66119;DHT22;52912;48.564;9.302;2023-04-03T15:27:12;6.70;58.94
66119;DHT22;52912;48.564;9.302;2023-04-03T15:29:38;6.66;59.29
66119;DHT22;52912;48.564;9.302;2023-04-03T15:32:03;6.63;59.11
66119;DHT22;52912;48.564;9.302;2023-04-03T15:34:28;6.83;59.13
66119;DHT22;52912;48.564;9.302;2023-04-03T15:36:54;6.95;59.30
66119;DHT22;52912;48.564;9.302;2023-04-03T15:39:19;7.01;59.03
66119;DHT22;52912;48.564;9.302;2023-04-03T15:41:44;7.05;58.03
66119;DHT22;52912;48.564;9.302;2023-04-03T15:44:11;7.02;57.98
66119;DHT22;52912;48.564;9.302;2023-04-03T15:46:36;6.93;57.80
66119;DHT22;52912;48.564;9.302;2023-04-03T15:49:01;6.88;57.92
66119;DHT22;52912;48.564;9.302;2023-04-03T15:51:27;6.93;57.49
66119;DHT22;52912;48.564;9.302;2023-04-03T15:53:52;6.90;57.72
66119;DHT22;52912;48.564;9.302;2023-04-03T15:56:17;6.73;57.59
66119;DHT22;52912;48.564;9.302;2023-04-03T15:58:43;6.69;58.20
66119;DHT22;52912;48.564;9.302;2023-04-03T16:01:10;6.67;58.96